createdAt,value
2023-05-01T00:26:57.675Z,70.89
2023-05-01T00:29:24.751Z,71.11
2023-05-01T00:31:51.871Z,71.10
2023-05-01T00:34:19.594Z,71.28
2023-05-01T00:36:48.111Z,71.30
2023-05-01T00:39:16.529Z,72.08
2023-05-01T00:41:43.294Z,72.24
2023-05-01T00:44:10.246Z,71.85
2023-05-01T00:46:37.629Z,72.07
2023-05-01T00:49:04.412Z,72.73
2023-05-01T00:51:31.438Z,72.84
2023-05-01T00:53:59.769Z,72.68
2023-05-01T00:56:27.440Z,72.35
2023-05-01T00:58:54.714Z,72.57
2023-05-01T01:01:21.499Z,72.60
2023-05-01T01:18:39.744Z,73.63
2023-05-01T01:21:19.878Z,73.18
2023-05-01T01:24:19.119Z,73.13
2023-05-01T01:27:10.717Z,73.51
2023-05-01T01:29:41.106Z,73.59
2023-05-01T01:32:27.008Z,73.80
2023-05-01T01:35:03.017Z,73.87
2023-05-01T01:37:43.167Z,74.38
2023-05-01T01:40:29.238Z,74.58
2023-05-01T01:43:04.883Z,74.74
2023-05-01T01:45:40.577Z,74.72
2023-05-01T01:48:12.747Z,74.94
2023-05-01T01:50:41.732Z,75.10
2023-05-01T01:53:11.183Z,75.20
2023-05-01T01:55:40.958Z,75.02
2023-05-01T01:58:09.973Z,74.79
2023-05-01T02:00:38.580Z,75.13
2023-05-01T02:03:06.028Z,74.80
2023-05-01T02:05:35.406Z,75.09
2023-05-01T02:08:03.564Z,75.59
2023-05-01T02:10:32.155Z,76.11
2023-05-01T02:13:01.308Z,75.71
2023-05-01T02:15:29.837Z,75.41
2023-05-01T02:17:58.796Z,76.03
2023-05-01T02:20:26.219Z,76.69
2023-05-01T02:23:43.874Z,76.47
2023-05-01T02:26:16.702Z,76.56
2023-05-01T02:28:43.706Z,76.49
2023-05-01T02:31:10.912Z,76.10
2023-05-01T02:38:20.837Z,77.07
2023-05-01T02:40:51.790Z,77.24
2023-05-01T02:43:22.274Z,77.46
2023-05-01T02:45:51.969Z,76.84
2023-05-01T02:48:25.004Z,77.63
2023-05-01T02:50:53.334Z,77.68
2023-05-01T02:53:21.832Z,77.21
2023-05-01T02:55:51.019Z,77.52
2023-05-01T02:58:19.133Z,77.20
2023-05-01T03:00:48.896Z,77.55
2023-05-01T03:03:16.110Z,77.20
2023-05-01T03:05:43.009Z,76.87
2023-05-01T03:08:11.182Z,76.81
2023-05-01T03:10:43.778Z,77.25
2023-05-01T03:13:11.389Z,77.77
2023-05-01T03:15:39.182Z,78.34
